sensor_id;sensor_type;location;lat;lon;timestamp;temperature;humidity
6439;DHT22;3252;52.540;13.290;2023-05-29T00:00:13;15.10;98.70
6439;DHT22;3252;52.540;13.290;2023-05-29T00:02:16;15.00;98.80
6439;DHT22;3252;52.540;13.290;2023-05-29T00:04:19;15.00;98.80
6439;DHT22;3252;52.540;13.290;2023-05-29T00:06:23;15.00;98.80
6439;DHT22;3252;52.540;13.290;2023-05-29T00:08:25;15.00;98.70
6439;DHT22;3252;52.540;13.290;2023-05-29T00:10:30;15.00;98.60
6439;DHT22;3252;52.540;13.290;2023-05-29T00:12:33;15.00;98.90
6439;DHT22;3252;52.540;13.290;2023-05-29T00:14:35;14.90;99.00
6439;DHT22;3252;52.540;13.290;2023-05-29T00:16:37;14.90;99.10
6439;DHT22;3252;52.540;13.290;2023-05-29T00:18:40;14.80;99.20
6439;DHT22;3252;52.540;13.290;2023-05-29T00:20:46;14.80;99.30
6439;DHT22;3252;52.540;13.290;2023-05-29T00:22:48;14.70;99.20
6439;DHT22;3252;52.540;13.290;2023-05-29T00:24:50;14.60;99.60
6439;DHT22;3252;52.540;13.290;2023-05-29T00:26:54;14.50;99.70
6439;DHT22;3252;52.540;13.290;2023-05-29T00:28:56;14.40;99.70
6439;DHT22;3252;52.540;13.290;2023-05-29T00:30:58;14.40;99.90
6439;DHT22;3252;52.540;13.290;2023-05-29T00:33:01;14.30;99.90
6439;DHT22;3252;52.540;13.290;2023-05-29T00:35:04;14.20;99.90
6439;DHT22;3252;52.540;13.290;2023-05-29T00:37:06;14.10;99.90
6439;DHT22;3252;52.540;13.290;2023-05-29T00:39:09;14.10;99.90
6439;DHT22;3252;52.540;13.290;2023-05-29T00:41:14;14.10;99.90
6439;DHT22;3252;52.540;13.290;2023-05-29T00:43:18;14.00;99.90
6439;DHT22;3252;52.540;13.290;2023-05-29T00:45:21;13.90;99.90
6439;DHT22;3252;52.540;13.290;2023-05-29T00:47:24;13.90;99.90
6439;DHT22;3252;52.540;13.290;2023-05-29T00:49:27;13.90;99.90
6439;DHT22;3252;52.540;13.290;2023-05-29T00:51:30;13.80;99.90
6439;DHT22;3252;52.540;13.290;2023-05-29T00:53:35;13.80;99.90
6439;DHT22;3252;52.540;13.290;2023-05-29T00:55:38;13.70;99.90
6439;DHT22;3252;52.540;13.290;2023-05-29T00:57:40;13.70;99.90
6439;DHT22;3252;52.540;13.290;2023-05-29T00:59:46;13.60;99.90
6439;DHT22;3252;52.540;13.290;2023-05-29T01:01:49;13.60;99.90
6439;DHT22;3252;52.540;13.290;2023-05-29T01:03:53;13.60;99.90
6439;DHT22;3252;52.540;13.290;2023-05-29T01:05:58;13.50;99.90
6439;DHT22;3252;52.540;13.290;2023-05-29T01:08:01;13.50;99.90
6439;DHT22;3252;52.540;13.290;2023-05-29T01:10:04;13.50;99.90
6439;DHT22;3252;52.540;13.290;2023-05-29T01:12:19;13.50;99.90
6439;DHT22;3252;52.540;13.290;2023-05-29T01:14:29;13.40;99.90
6439;DHT22;3252;52.540;13.290;2023-05-29T01:16:41;13.40;99.90
6439;DHT22;3252;52.540;13.290;2023-05-29T01:18:54;13.40;99.90
6439;DHT22;3252;52.540;13.290;2023-05-29T01:21:04;13.40;99.90
6439;DHT22;3252;52.540;13.290;2023-05-29T01:23:34;13.30;99.90
6439;DHT22;3252;52.540;13.290;2023-05-29T01:26:03;13.20;99.90
6439;DHT22;3252;52.540;13.290;2023-05-29T01:28:13;13.20;99.90
6439;DHT22;3252;52.540;13.290;2023-05-29T01:30:17;13.10;99.90
6439;DHT22;3252;52.540;13.290;2023-05-29T01:32:20;13.10;99.90
6439;DHT22;3252;52.540;13.290;2023-05-29T01:34:23;13.10;99.90
6439;DHT22;3252;52.540;13.290;2023-05-29T01:36:26;13.00;99.90
6439;DHT22;3252;52.540;13.290;2023-05-29T01:38:28;12.90;99.90
6439;DHT22;3252;52.540;13.290;2023-05-29T01:40:30;12.90;99.90
6439;DHT22;3252;52.540;13.290;2023-05-29T01:42:33;12.90;99.90
6439;DHT22;3252;52.540;13.290;2023-05-29T01:44:38;13.00;99.90
6439;DHT22;3252;52.540;13.290;2023-05-29T01:46:41;12.90;99.90
6439;DHT22;3252;52.540;13.290;2023-05-29T01:48:44;12.90;99.90
6439;DHT22;3252;52.540;13.290;2023-05-29T01:50:47;12.90;99.90
6439;DHT22;3252;52.540;13.290;2023-05-29T01:52:51;12.80;99.90
6439;DHT22;3252;52.540;13.290;2023-05-29T01:54:53;12.80;99.90
6439;DHT22;3252;52.540;13.290;2023-05-29T01:56:56;12.80;99.90
6439;DHT22;3252;52.540;13.290;2023-05-29T01:58:58;12.80;99.90
6439;DHT22;3252;52.540;13.290;2023-05-29T02:01:05;12.70;99.90
6439;DHT22;3252;52.540;13.290;2023-05-29T02:03:07;12.50;99.90
6439;DHT22;3252;52.540;13.290;2023-05-29T02:05:09;12.60;99.90
6439;DHT22;3252;52.540;13.290;2023-05-29T02:07:11;12.60;99.90
6439;DHT22;3252;52.540;13.290;2023-05-29T02:09:17;12.50;99.90
6439;DHT22;3252;52.540;13.290;2023-05-29T02:11:19;12.40;99.90
6439;DHT22;3252;52.540;13.290;2023-05-29T02:13:22;12.40;99.90
6439;DHT22;3252;52.540;13.290;2023-05-29T02:15:24;12.40;99.90
6439;DHT22;3252;52.540;13.290;2023-05-29T02:17:28;12.40;99.90
6439;DHT22;3252;52.540;13.290;2023-05-29T02:19:31;12.40;99.90
6439;DHT22;3252;52.540;13.290;2023-05-29T02:21:38;12.30;99.90
6439;DHT22;3252;52.540;13.290;2023-05-29T02:23:40;12.30;99.90
6439;DHT22;3252;52.540;13.290;2023-05-29T02:25:43;12.30;99.90
6439;DHT22;3252;52.540;13.290;2023-05-29T02:27:45;12.30;99.90
6439;DHT22;3252;52.540;13.290;2023-05-29T02:29:48;12.20;99.90
6439;DHT22;3252;52.540;13.290;2023-05-29T02:31:50;12.20;99.90
6439;DHT22;3252;52.540;13.290;2023-05-29T02:33:54;12.20;99.90
6439;DHT22;3252;52.540;13.290;2023-05-29T02:35:56;12.10;99.90
6439;DHT22;3252;52.540;13.290;2023-05-29T02:37:59;12.10;99.90
6439;DHT22;3252;52.540;13.290;2023-05-29T02:40:01;12.20;99.90
6439;DHT22;3252;52.540;13.290;2023-05-29T02:42:04;12.10;99.90
6439;DHT22;3252;52.540;13.290;2023-05-29T02:44:07;12.20;99.90
6439;DHT22;3252;52.540;13.290;2023-05-29T02:46:09;12.00;99.90
6439;DHT22;3252;52.540;13.290;2023-05-29T02:48:11;12.00;99.90
6439;DHT22;3252;52.540;13.290;2023-05-29T02:50:15;12.00;99.90
6439;DHT22;3252;52.540;13.290;2023-05-29T02:52:17;12.00;99.90
6439;DHT22;3252;52.540;13.290;2023-05-29T02:54:19;12.00;99.90
6439;DHT22;3252;52.540;13.290;2023-05-29T02:56:22;11.90;99.90
6439;DHT22;3252;52.540;13.290;2023-05-29T02:58:25;12.00;99.90
6439;DHT22;3252;52.540;13.290;2023-05-29T03:00:28;12.00;99.90
6439;DHT22;3252;52.540;13.290;2023-05-29T03:02:32;11.90;99.90
6439;DHT22;3252;52.540;13.290;2023-05-29T03:04:35;11.90;99.90
6439;DHT22;3252;52.540;13.290;2023-05-29T03:06:40;11.80;99.90
6439;DHT22;3252;52.540;13.290;2023-05-29T03:08:42;11.80;99.90
6439;DHT22;3252;52.540;13.290;2023-05-29T03:10:45;11.80;99.90
6439;DHT22;3252;52.540;13.290;2023-05-29T03:12:49;11.90;99.90
6439;DHT22;3252;52.540;13.290;2023-05-29T03:14:52;11.70;99.90
6439;DHT22;3252;52.540;13.290;2023-05-29T03:16:54;11.60;99.90
6439;DHT22;3252;52.540;13.290;2023-05-29T03:18:57;11.60;99.90
6439;DHT22;3252;52.540;13.290;2023-05-29T03:20:59;11.60;99.90
6439;DHT22;3252;52.540;13.290;2023-05-29T03:23:03;11.60;99.90
6439;DHT22;3252;52.540;13.290;2023-05-29T03:25:08;11.60;99.90
6439;DHT22;3252;52.540;13.290;2023-05-29T03:27:11;11.70;99.90
6439;DHT22;3252;52.540;13.290;2023-05-29T03:29:13;11.70;99.90
6439;DHT22;3252;52.540;13.290;2023-05-29T03:31:16;11.70;99.90
6439;DHT22;3252;52.540;13.290;2023-05-29T03:33:18;11.80;99.90
6439;DHT22;3252;52.540;13.290;2023-05-29T03:35:41;11.80;99.90
6439;DHT22;3252;52.540;13.290;2023-05-29T03:37:43;11.90;99.90
6439;DHT22;3252;52.540;13.290;2023-05-29T03:39:47;11.90;99.90
6439;DHT22;3252;52.540;13.290;2023-05-29T03:41:49;11.90;99.90
6439;DHT22;3252;52.540;13.290;2023-05-29T03:43:53;11.90;99.90
6439;DHT22;3252;52.540;13.290;2023-05-29T03:45:57;12.00;99.90
6439;DHT22;3252;52.540;13.290;2023-05-29T03:48:02;12.00;99.90
6439;DHT22;3252;52.540;13.290;2023-05-29T03:50:06;12.00;99.90
6439;DHT22;3252;52.540;13.290;2023-05-29T03:52:10;12.00;99.90
6439;DHT22;3252;52.540;13.290;2023-05-29T03:54:12;12.10;99.90
6439;DHT22;3252;52.540;13.290;2023-05-29T03:56:16;12.10;99.90
6439;DHT22;3252;52.540;13.290;2023-05-29T03:58:18;12.20;99.90
6439;DHT22;3252;52.540;13.290;2023-05-29T04:00:21;12.20;99.90
6439;DHT22;3252;52.540;13.290;2023-05-29T04:02:25;12.20;99.90
6439;DHT22;3252;52.540;13.290;2023-05-29T04:04:27;12.20;99.90
6439;DHT22;3252;52.540;13.290;2023-05-29T04:06:29;12.30;99.90
6439;DHT22;3252;52.540;13.290;2023-05-29T04:08:32;12.40;99.90
6439;DHT22;3252;52.540;13.290;2023-05-29T04:10:37;12.40;99.90
6439;DHT22;3252;52.540;13.290;2023-05-29T04:12:41;12.50;99.90
6439;DHT22;3252;52.540;13.290;2023-05-29T04:14:43;12.50;99.90
6439;DHT22;3252;52.540;13.290;2023-05-29T04:16:47;12.50;99.90
6439;DHT22;3252;52.540;13.290;2023-05-29T04:18:49;12.60;99.90
6439;DHT22;3252;52.540;13.290;2023-05-29T04:20:52;12.60;99.90
6439;DHT22;3252;52.540;13.290;2023-05-29T04:22:56;12.60;99.90
6439;DHT22;3252;52.540;13.290;2023-05-29T04:24:59;12.70;99.90
6439;DHT22;3252;52.540;13.290;2023-05-29T04:27:01;12.60;99.90
6439;DHT22;3252;52.540;13.290;2023-05-29T04:29:06;12.70;99.90
6439;DHT22;3252;52.540;13.290;2023-05-29T04:31:08;12.80;99.90
6439;DHT22;3252;52.540;13.290;2023-05-29T04:33:17;12.80;99.90
6439;DHT22;3252;52.540;13.290;2023-05-29T04:35:23;12.90;99.90
6439;DHT22;3252;52.540;13.290;2023-05-29T04:37:32;12.90;99.90
6439;DHT22;3252;52.540;13.290;2023-05-29T04:39:39;13.00;99.90
6439;DHT22;3252;52.540;13.290;2023-05-29T04:41:43;13.00;99.90
6439;DHT22;3252;52.540;13.290;2023-05-29T04:43:50;13.10;99.90
6439;DHT22;3252;52.540;13.290;2023-05-29T04:45:56;13.10;99.90
6439;DHT22;3252;52.540;13.290;2023-05-29T04:47:59;13.20;99.90
6439;DHT22;3252;52.540;13.290;2023-05-29T04:50:02;13.30;99.90
6439;DHT22;3252;52.540;13.290;2023-05-29T04:52:05;13.30;99.90
6439;DHT22;3252;52.540;13.290;2023-05-29T04:54:07;13.30;99.90
6439;DHT22;3252;52.540;13.290;2023-05-29T04:56:10;13.40;99.90
6439;DHT22;3252;52.540;13.290;2023-05-29T04:58:12;13.50;99.90
6439;DHT22;3252;52.540;13.290;2023-05-29T05:00:16;13.50;99.90
6439;DHT22;3252;52.540;13.290;2023-05-29T05:02:20;13.60;99.90
6439;DHT22;3252;52.540;13.290;2023-05-29T05:04:23;13.60;99.90
6439;DHT22;3252;52.540;13.290;2023-05-29T05:06:26;13.70;99.90
6439;DHT22;3252;52.540;13.290;2023-05-29T05:08:29;13.70;99.90
6439;DHT22;3252;52.540;13.290;2023-05-29T05:10:33;13.80;99.90
6439;DHT22;3252;52.540;13.290;2023-05-29T05:12:35;13.90;99.90
6439;DHT22;3252;52.540;13.290;2023-05-29T05:14:38;14.00;99.90
6439;DHT22;3252;52.540;13.290;2023-05-29T05:16:40;14.00;99.90
6439;DHT22;3252;52.540;13.290;2023-05-29T05:18:43;14.10;99.90
6439;DHT22;3252;52.540;13.290;2023-05-29T05:20:46;14.20;99.90
6439;DHT22;3252;52.540;13.290;2023-05-29T05:22:48;14.30;99.90
6439;DHT22;3252;52.540;13.290;2023-05-29T05:24:50;14.40;99.90
6439;DHT22;3252;52.540;13.290;2023-05-29T05:26:55;14.40;99.90
6439;DHT22;3252;52.540;13.290;2023-05-29T05:28:57;14.40;99.90
6439;DHT22;3252;52.540;13.290;2023-05-29T05:31:02;14.50;99.90
6439;DHT22;3252;52.540;13.290;2023-05-29T05:33:06;14.50;99.90
6439;DHT22;3252;52.540;13.290;2023-05-29T05:35:10;14.60;99.80
6439;DHT22;3252;52.540;13.290;2023-05-29T05:37:12;14.60;99.90
6439;DHT22;3252;52.540;13.290;2023-05-29T05:39:16;14.70;99.40
6439;DHT22;3252;52.540;13.290;2023-05-29T05:41:21;14.70;99.20
6439;DHT22;3252;52.540;13.290;2023-05-29T05:43:24;14.80;99.10
6439;DHT22;3252;52.540;13.290;2023-05-29T05:45:38;14.90;99.00
6439;DHT22;3252;52.540;13.290;2023-05-29T05:47:43;15.00;98.60
6439;DHT22;3252;52.540;13.290;2023-05-29T05:49:46;15.10;98.50
6439;DHT22;3252;52.540;13.290;2023-05-29T05:51:52;15.10;98.50
6439;DHT22;3252;52.540;13.290;2023-05-29T05:53:54;15.20;98.90
6439;DHT22;3252;52.540;13.290;2023-05-29T05:55:56;15.30;98.20
6439;DHT22;3252;52.540;13.290;2023-05-29T05:57:59;15.30;98.00
6439;DHT22;3252;52.540;13.290;2023-05-29T06:00:02;15.40;97.40
6439;DHT22;3252;52.540;13.290;2023-05-29T06:02:06;15.40;97.30
6439;DHT22;3252;52.540;13.290;2023-05-29T06:04:08;15.60;98.00
6439;DHT22;3252;52.540;13.290;2023-05-29T06:06:10;15.70;96.70
6439;DHT22;3252;52.540;13.290;2023-05-29T06:08:20;15.80;96.90
6439;DHT22;3252;52.540;13.290;2023-05-29T06:10:22;15.90;96.40
6439;DHT22;3252;52.540;13.290;2023-05-29T06:12:24;15.90;95.80
6439;DHT22;3252;52.540;13.290;2023-05-29T06:14:36;16.00;95.70
6439;DHT22;3252;52.540;13.290;2023-05-29T06:16:40;16.00;95.90
6439;DHT22;3252;52.540;13.290;2023-05-29T06:18:43;16.10;95.70
6439;DHT22;3252;52.540;13.290;2023-05-29T06:20:45;16.10;96.00
6439;DHT22;3252;52.540;13.290;2023-05-29T06:22:47;16.20;95.60
6439;DHT22;3252;52.540;13.290;2023-05-29T06:24:53;16.20;95.20
6439;DHT22;3252;52.540;13.290;2023-05-29T06:26:55;16.20;94.90
6439;DHT22;3252;52.540;13.290;2023-05-29T06:28:58;16.20;94.40
6439;DHT22;3252;52.540;13.290;2023-05-29T06:31:00;16.30;94.50
6439;DHT22;3252;52.540;13.290;2023-05-29T06:33:02;16.50;94.60
6439;DHT22;3252;52.540;13.290;2023-05-29T06:35:06;16.60;93.00
6439;DHT22;3252;52.540;13.290;2023-05-29T06:37:09;16.70;92.40
6439;DHT22;3252;52.540;13.290;2023-05-29T06:39:11;16.80;91.00
6439;DHT22;3252;52.540;13.290;2023-05-29T06:41:15;16.90;91.40
6439;DHT22;3252;52.540;13.290;2023-05-29T06:43:17;16.90;91.80
6439;DHT22;3252;52.540;13.290;2023-05-29T06:45:23;17.00;91.10
6439;DHT22;3252;52.540;13.290;2023-05-29T06:47:26;17.10;90.00
6439;DHT22;3252;52.540;13.290;2023-05-29T06:49:28;17.10;90.20
6439;DHT22;3252;52.540;13.290;2023-05-29T06:51:30;17.10;90.30
6439;DHT22;3252;52.540;13.290;2023-05-29T06:53:45;17.10;89.60
6439;DHT22;3252;52.540;13.290;2023-05-29T06:55:49;17.10;86.60
6439;DHT22;3252;52.540;13.290;2023-05-29T06:57:53;17.10;87.10
6439;DHT22;3252;52.540;13.290;2023-05-29T06:59:55;17.10;86.30
6439;DHT22;3252;52.540;13.290;2023-05-29T07:01:57;17.10;88.50
6439;DHT22;3252;52.540;13.290;2023-05-29T07:04:02;17.20;88.90
6439;DHT22;3252;52.540;13.290;2023-05-29T07:06:05;17.30;88.40
6439;DHT22;3252;52.540;13.290;2023-05-29T07:08:08;17.40;88.00
6439;DHT22;3252;52.540;13.290;2023-05-29T07:10:10;17.50;88.60
6439;DHT22;3252;52.540;13.290;2023-05-29T07:12:12;17.60;87.40
6439;DHT22;3252;52.540;13.290;2023-05-29T07:14:16;17.60;85.30
6439;DHT22;3252;52.540;13.290;2023-05-29T07:16:19;17.60;83.50
6439;DHT22;3252;52.540;13.290;2023-05-29T07:18:21;17.50;84.00
6439;DHT22;3252;52.540;13.290;2023-05-29T07:20:23;17.60;84.20
6439;DHT22;3252;52.540;13.290;2023-05-29T07:22:27;17.70;83.50
6439;DHT22;3252;52.540;13.290;2023-05-29T07:24:29;17.70;82.90
6439;DHT22;3252;52.540;13.290;2023-05-29T07:26:31;17.70;81.00
6439;DHT22;3252;52.540;13.290;2023-05-29T07:28:33;17.80;80.10
6439;DHT22;3252;52.540;13.290;2023-05-29T07:30:37;17.70;79.30
6439;DHT22;3252;52.540;13.290;2023-05-29T07:32:40;17.80;78.90
6439;DHT22;3252;52.540;13.290;2023-05-29T07:34:42;17.80;76.70
6439;DHT22;3252;52.540;13.290;2023-05-29T07:36:57;17.90;78.90
6439;DHT22;3252;52.540;13.290;2023-05-29T07:39:00;18.00;77.70
6439;DHT22;3252;52.540;13.290;2023-05-29T07:41:03;18.10;76.40
6439;DHT22;3252;52.540;13.290;2023-05-29T07:43:08;18.10;77.10
6439;DHT22;3252;52.540;13.290;2023-05-29T07:45:23;18.10;75.00
6439;DHT22;3252;52.540;13.290;2023-05-29T07:47:26;18.20;75.00
6439;DHT22;3252;52.540;13.290;2023-05-29T07:49:28;18.20;75.30
6439;DHT22;3252;52.540;13.290;2023-05-29T07:51:31;18.30;74.70
6439;DHT22;3252;52.540;13.290;2023-05-29T07:53:33;18.50;74.30
6439;DHT22;3252;52.540;13.290;2023-05-29T07:55:36;18.70;70.70
6439;DHT22;3252;52.540;13.290;2023-05-29T07:57:38;18.80;67.90
6439;DHT22;3252;52.540;13.290;2023-05-29T07:59:41;18.80;68.60
6439;DHT22;3252;52.540;13.290;2023-05-29T08:01:44;18.70;67.70
6439;DHT22;3252;52.540;13.290;2023-05-29T08:04:04;18.60;69.60
6439;DHT22;3252;52.540;13.290;2023-05-29T08:06:07;18.60;69.90
6439;DHT22;3252;52.540;13.290;2023-05-29T08:08:09;18.60;72.40
6439;DHT22;3252;52.540;13.290;2023-05-29T08:10:13;18.70;73.40
6439;DHT22;3252;52.540;13.290;2023-05-29T08:12:16;18.70;75.80
6439;DHT22;3252;52.540;13.290;2023-05-29T08:14:18;18.80;75.50
6439;DHT22;3252;52.540;13.290;2023-05-29T08:16:20;18.60;72.50
6439;DHT22;3252;52.540;13.290;2023-05-29T08:18:25;18.70;73.10
6439;DHT22;3252;52.540;13.290;2023-05-29T08:20:29;18.80;71.70
6439;DHT22;3252;52.540;13.290;2023-05-29T08:22:32;18.90;71.20
6439;DHT22;3252;52.540;13.290;2023-05-29T08:24:35;19.00;73.10
6439;DHT22;3252;52.540;13.290;2023-05-29T08:26:37;19.10;73.30
6439;DHT22;3252;52.540;13.290;2023-05-29T08:28:39;19.20;69.40
6439;DHT22;3252;52.540;13.290;2023-05-29T08:30:42;19.20;70.00
6439;DHT22;3252;52.540;13.290;2023-05-29T08:32:44;19.30;71.00
6439;DHT22;3252;52.540;13.290;2023-05-29T08:34:46;19.50;69.20
6439;DHT22;3252;52.540;13.290;2023-05-29T08:36:50;20.20;65.70
6439;DHT22;3252;52.540;13.290;2023-05-29T08:38:55;20.50;62.10
6439;DHT22;3252;52.540;13.290;2023-05-29T08:40:57;20.70;59.60
6439;DHT22;3252;52.540;13.290;2023-05-29T08:43:06;20.90;58.90
6439;DHT22;3252;52.540;13.290;2023-05-29T08:45:13;21.10;59.50
6439;DHT22;3252;52.540;13.290;2023-05-29T08:47:17;21.00;58.70
6439;DHT22;3252;52.540;13.290;2023-05-29T08:49:21;20.50;55.50
6439;DHT22;3252;52.540;13.290;2023-05-29T08:51:31;20.20;56.40
6439;DHT22;3252;52.540;13.290;2023-05-29T08:53:37;20.50;56.30
6439;DHT22;3252;52.540;13.290;2023-05-29T08:55:39;20.60;57.20
6439;DHT22;3252;52.540;13.290;2023-05-29T08:57:42;20.70;56.40
6439;DHT22;3252;52.540;13.290;2023-05-29T08:59:45;21.00;56.30
6439;DHT22;3252;52.540;13.290;2023-05-29T09:01:47;20.70;54.80
6439;DHT22;3252;52.540;13.290;2023-05-29T09:03:49;20.60;56.50
6439;DHT22;3252;52.540;13.290;2023-05-29T09:05:51;20.60;57.90
6439;DHT22;3252;52.540;13.290;2023-05-29T09:08:00;20.50;57.70
6439;DHT22;3252;52.540;13.290;2023-05-29T09:10:05;20.60;59.10
6439;DHT22;3252;52.540;13.290;2023-05-29T09:12:08;20.70;59.10
6439;DHT22;3252;52.540;13.290;2023-05-29T09:14:31;20.90;58.80
6439;DHT22;3252;52.540;13.290;2023-05-29T09:16:41;21.40;56.80
6439;DHT22;3252;52.540;13.290;2023-05-29T09:18:43;21.70;56.10
6439;DHT22;3252;52.540;13.290;2023-05-29T09:20:47;21.90;55.60
6439;DHT22;3252;52.540;13.290;2023-05-29T09:22:53;22.00;55.20
6439;DHT22;3252;52.540;13.290;2023-05-29T09:24:55;21.70;53.30
6439;DHT22;3252;52.540;13.290;2023-05-29T09:27:02;21.90;55.00
6439;DHT22;3252;52.540;13.290;2023-05-29T09:29:05;22.10;55.10
6439;DHT22;3252;52.540;13.290;2023-05-29T09:31:14;22.10;53.80
6439;DHT22;3252;52.540;13.290;2023-05-29T09:33:18;21.90;53.70
6439;DHT22;3252;52.540;13.290;2023-05-29T09:35:20;22.00;55.50
6439;DHT22;3252;52.540;13.290;2023-05-29T09:37:23;21.80;52.90
6439;DHT22;3252;52.540;13.290;2023-05-29T09:39:25;21.60;53.70
6439;DHT22;3252;52.540;13.290;2023-05-29T09:41:27;21.40;54.10
6439;DHT22;3252;52.540;13.290;2023-05-29T09:43:31;21.30;54.70
6439;DHT22;3252;52.540;13.290;2023-05-29T09:45:36;21.20;54.40
6439;DHT22;3252;52.540;13.290;2023-05-29T09:47:39;21.30;54.00
6439;DHT22;3252;52.540;13.290;2023-05-29T09:49:43;21.20;53.90
6439;DHT22;3252;52.540;13.290;2023-05-29T09:51:46;21.00;54.40
6439;DHT22;3252;52.540;13.290;2023-05-29T09:53:49;21.00;54.50
6439;DHT22;3252;52.540;13.290;2023-05-29T09:55:53;21.10;55.00
6439;DHT22;3252;52.540;13.290;2023-05-29T09:57:56;21.20;54.90
6439;DHT22;3252;52.540;13.290;2023-05-29T10:00:01;21.20;54.80
6439;DHT22;3252;52.540;13.290;2023-05-29T10:02:14;21.20;53.90
6439;DHT22;3252;52.540;13.290;2023-05-29T10:04:17;21.20;54.30
6439;DHT22;3252;52.540;13.290;2023-05-29T10:06:20;21.30;54.30
6439;DHT22;3252;52.540;13.290;2023-05-29T10:08:23;21.50;53.70
6439;DHT22;3252;52.540;13.290;2023-05-29T10:10:26;21.60;53.40
6439;DHT22;3252;52.540;13.290;2023-05-29T10:12:31;21.70;53.00
6439;DHT22;3252;52.540;13.290;2023-05-29T10:14:35;21.80;52.20
6439;DHT22;3252;52.540;13.290;2023-05-29T10:16:42;21.70;50.60
6439;DHT22;3252;52.540;13.290;2023-05-29T10:18:49;21.60;50.70
6439;DHT22;3252;52.540;13.290;2023-05-29T10:20:56;21.70;51.00
6439;DHT22;3252;52.540;13.290;2023-05-29T10:23:00;21.80;51.20
6439;DHT22;3252;52.540;13.290;2023-05-29T10:25:05;21.80;49.60
6439;DHT22;3252;52.540;13.290;2023-05-29T10:27:08;22.00;50.50
6439;DHT22;3252;52.540;13.290;2023-05-29T10:29:15;22.10;50.30
6439;DHT22;3252;52.540;13.290;2023-05-29T10:31:24;22.10;49.20
6439;DHT22;3252;52.540;13.290;2023-05-29T10:33:41;22.10;49.20
6439;DHT22;3252;52.540;13.290;2023-05-29T10:35:51;22.00;48.40
6439;DHT22;3252;52.540;13.290;2023-05-29T10:37:59;21.90;47.70
6439;DHT22;3252;52.540;13.290;2023-05-29T10:40:05;22.00;48.00
6439;DHT22;3252;52.540;13.290;2023-05-29T10:42:45;22.00;46.50
6439;DHT22;3252;52.540;13.290;2023-05-29T10:44:48;22.00;45.40
6439;DHT22;3252;52.540;13.290;2023-05-29T10:47:05;22.20;46.50
6439;DHT22;3252;52.540;13.290;2023-05-29T10:49:16;22.30;46.00
6439;DHT22;3252;52.540;13.290;2023-05-29T10:51:28;22.40;45.40
6439;DHT22;3252;52.540;13.290;2023-05-29T10:53:32;22.30;46.00
6439;DHT22;3252;52.540;13.290;2023-05-29T10:55:35;22.30;47.00
6439;DHT22;3252;52.540;13.290;2023-05-29T10:57:46;22.00;47.90
6439;DHT22;3252;52.540;13.290;2023-05-29T10:59:58;21.90;48.30
6439;DHT22;3252;52.540;13.290;2023-05-29T11:02:01;21.90;47.50
6439;DHT22;3252;52.540;13.290;2023-05-29T11:04:31;21.90;47.20
6439;DHT22;3252;52.540;13.290;2023-05-29T11:06:35;21.90;47.40
6439;DHT22;3252;52.540;13.290;2023-05-29T11:08:43;22.00;46.60
6439;DHT22;3252;52.540;13.290;2023-05-29T11:10:56;22.10;45.80
6439;DHT22;3252;52.540;13.290;2023-05-29T11:12:58;22.00;46.80
6439;DHT22;3252;52.540;13.290;2023-05-29T11:15:04;22.20;47.60
6439;DHT22;3252;52.540;13.290;2023-05-29T11:17:06;22.30;47.90
6439;DHT22;3252;52.540;13.290;2023-05-29T11:19:09;22.20;47.50
6439;DHT22;3252;52.540;13.290;2023-05-29T11:21:30;22.20;48.20
6439;DHT22;3252;52.540;13.290;2023-05-29T11:23:37;22.20;48.30
6439;DHT22;3252;52.540;13.290;2023-05-29T11:25:44;22.10;47.40
6439;DHT22;3252;52.540;13.290;2023-05-29T11:27:49;21.90;47.20
6439;DHT22;3252;52.540;13.290;2023-05-29T11:29:52;21.90;47.30
6439;DHT22;3252;52.540;13.290;2023-05-29T11:31:59;21.80;47.10
6439;DHT22;3252;52.540;13.290;2023-05-29T11:34:03;21.80;47.10
6439;DHT22;3252;52.540;13.290;2023-05-29T11:36:08;21.70;46.90
6439;DHT22;3252;52.540;13.290;2023-05-29T11:38:12;21.90;47.50
6439;DHT22;3252;52.540;13.290;2023-05-29T11:40:17;21.90;47.50
6439;DHT22;3252;52.540;13.290;2023-05-29T11:42:20;22.00;47.80
6439;DHT22;3252;52.540;13.290;2023-05-29T11:44:24;22.00;46.80
6439;DHT22;3252;52.540;13.290;2023-05-29T11:46:26;22.00;47.70
6439;DHT22;3252;52.540;13.290;2023-05-29T11:48:31;21.90;48.20
6439;DHT22;3252;52.540;13.290;2023-05-29T11:50:36;21.90;49.00
6439;DHT22;3252;52.540;13.290;2023-05-29T11:52:57;21.80;48.80
6439;DHT22;3252;52.540;13.290;2023-05-29T11:55:07;21.70;48.80
6439;DHT22;3252;52.540;13.290;2023-05-29T11:57:09;21.80;48.90
6439;DHT22;3252;52.540;13.290;2023-05-29T11:59:11;21.70;48.20
6439;DHT22;3252;52.540;13.290;2023-05-29T12:01:16;21.80;48.30
6439;DHT22;3252;52.540;13.290;2023-05-29T12:03:20;21.90;48.90
6439;DHT22;3252;52.540;13.290;2023-05-29T12:05:22;22.10;48.90
6439;DHT22;3252;52.540;13.290;2023-05-29T12:07:24;22.30;48.20
6439;DHT22;3252;52.540;13.290;2023-05-29T12:09:27;22.50;47.60
6439;DHT22;3252;52.540;13.290;2023-05-29T12:11:31;22.70;47.10
6439;DHT22;3252;52.540;13.290;2023-05-29T12:13:35;22.70;46.00
6439;DHT22;3252;52.540;13.290;2023-05-29T12:15:37;22.70;47.40
6439;DHT22;3252;52.540;13.290;2023-05-29T12:17:40;22.70;47.00
6439;DHT22;3252;52.540;13.290;2023-05-29T12:19:43;22.50;47.20
6439;DHT22;3252;52.540;13.290;2023-05-29T12:21:45;22.40;47.00
6439;DHT22;3252;52.540;13.290;2023-05-29T12:23:47;21.80;46.60
6439;DHT22;3252;52.540;13.290;2023-05-29T12:25:51;21.80;47.30
6439;DHT22;3252;52.540;13.290;2023-05-29T12:27:56;21.90;48.10
6439;DHT22;3252;52.540;13.290;2023-05-29T12:30:00;22.10;47.20
6439;DHT22;3252;52.540;13.290;2023-05-29T12:32:02;22.20;46.30
6439;DHT22;3252;52.540;13.290;2023-05-29T12:34:08;22.30;45.70
6439;DHT22;3252;52.540;13.290;2023-05-29T12:36:12;22.50;46.00
6439;DHT22;3252;52.540;13.290;2023-05-29T12:38:14;22.60;45.60
6439;DHT22;3252;52.540;13.290;2023-05-29T12:40:18;22.60;45.00
6439;DHT22;3252;52.540;13.290;2023-05-29T12:42:20;22.70;45.10
6439;DHT22;3252;52.540;13.290;2023-05-29T12:44:24;22.80;45.00
6439;DHT22;3252;52.540;13.290;2023-05-29T12:46:27;22.60;44.10
6439;DHT22;3252;52.540;13.290;2023-05-29T12:48:30;22.40;44.30
6439;DHT22;3252;52.540;13.290;2023-05-29T12:50:34;22.30;44.40
6439;DHT22;3252;52.540;13.290;2023-05-29T12:52:40;22.30;44.50
6439;DHT22;3252;52.540;13.290;2023-05-29T12:54:42;22.30;44.70
6439;DHT22;3252;52.540;13.290;2023-05-29T12:56:44;22.30;44.50
6439;DHT22;3252;52.540;13.290;2023-05-29T12:58:47;22.40;44.80
6439;DHT22;3252;52.540;13.290;2023-05-29T13:00:53;22.50;44.50
6439;DHT22;3252;52.540;13.290;2023-05-29T13:02:56;22.50;44.80
6439;DHT22;3252;52.540;13.290;2023-05-29T13:04:59;22.50;44.40
6439;DHT22;3252;52.540;13.290;2023-05-29T13:07:01;22.50;45.10
6439;DHT22;3252;52.540;13.290;2023-05-29T13:09:03;22.60;44.90
6439;DHT22;3252;52.540;13.290;2023-05-29T13:11:08;22.70;44.40
6439;DHT22;3252;52.540;13.290;2023-05-29T13:13:10;22.60;43.90
6439;DHT22;3252;52.540;13.290;2023-05-29T13:15:13;22.60;44.10
6439;DHT22;3252;52.540;13.290;2023-05-29T13:17:17;22.50;44.50